Time;durP1;ratioP1;P1;durP2;ratioP2;P2;SDS_P1;SDS_P2;PMS_P1;PMS_P2;Temp;Humidity;BMP_temperature;BMP_pressure;BME280_temperature;BME280_humidity;BME280_pressure;Samples;Min_cycle;Max_cycle;Signal;HPM_P1;HPM_P2
2023/01/18 00:01:59;;;;;;;7.27;3.47;;;;;;;5.65;56.68;97809.28;4964419;28;20222;-65
2023/01/18 00:04:33;;;;;;;11.70;3.93;;;;;;;5.66;56.71;97813.53;4966129;28;20217;-63
2023/01/18 00:07:00;;;;;;;7.43;4.00;;;;;;;5.62;56.85;97808.84;4964762;28;20321;-63
2023/01/18 00:09:30;;;;;;;9.37;4.17;;;;;;;5.64;56.86;97812.91;4968363;28;22863;-63
2023/01/18 00:11:58;;;;;;;8.20;4.07;;;;;;;5.64;56.74;97818.16;4967212;28;20262;-64
2023/01/18 00:14:34;;;;;;;9.87;4.23;;;;;;;5.65;56.91;97808.44;4970843;28;21946;-65
2023/01/18 00:17:03;;;;;;;6.93;3.97;;;;;;;5.65;56.74;97811.91;4966703;28;20218;-64
2023/01/18 00:19:33;;;;;;;8.77;3.90;;;;;;;5.62;56.70;97803.56;4964994;28;20215;-63
2023/01/18 00:22:07;;;;;;;6.93;3.77;;;;;;;5.63;56.84;97810.44;4966457;28;20233;-67
2023/01/18 00:24:34;;;;;;;7.97;4.10;;;;;;;5.60;56.85;97806.38;4967555;28;20217;-63
2023/01/18 00:27:08;;;;;;;9.83;4.40;;;;;;;5.61;56.61;97801.94;4965498;28;20612;-65
2023/01/18 00:29:37;;;;;;;6.90;3.70;;;;;;;5.61;56.78;97805.38;4964417;28;20219;-64
2023/01/18 00:32:06;;;;;;;8.30;3.70;;;;;;;5.59;56.56;97801.31;4962605;28;20261;-64
2023/01/18 00:34:37;;;;;;;7.53;3.40;;;;;;;5.56;56.86;97805.09;4961256;28;20245;-62
2023/01/18 00:37:06;;;;;;;8.43;4.30;;;;;;;5.54;56.63;97807.09;4965454;28;20658;-64
2023/01/18 00:39:34;;;;;;;7.73;3.90;;;;;;;5.52;56.52;97803.84;4966436;28;20211;-64
2023/01/18 00:44:47;;;;;;;8.43;4.07;;;;;;;5.50;56.64;97805.00;4962253;28;20209;-63
2023/01/18 00:47:16;;;;;;;8.80;4.00;;;;;;;5.49;56.75;97808.63;4962907;28;20210;-63
2023/01/18 00:49:45;;;;;;;10.53;4.23;;;;;;;5.48;56.83;97810.44;4961950;28;20214;-63
2023/01/18 00:52:12;;;;;;;7.23;3.63;;;;;;;5.44;56.81;97814.44;4964245;28;20240;-64
2023/01/18 00:54:40;;;;;;;8.93;3.83;;;;;;;5.45;57.03;97810.81;4966393;28;20292;-63
2023/01/18 00:57:08;;;;;;;8.20;4.23;;;;;;;5.43;56.88;97810.19;4968889;28;20205;-64
2023/01/18 00:59:36;;;;;;;7.97;3.80;;;;;;;5.42;56.70;97810.34;4965621;28;20241;-63
2023/01/18 01:02:03;;;;;;;9.07;4.07;;;;;;;5.44;56.58;97819.69;4966931;28;20222;-65
2023/01/18 01:07:18;;;;;;;9.27;4.67;;;;;;;5.40;56.44;97815.78;4970234;28;20250;-63
2023/01/18 01:09:45;;;;;;;9.70;4.10;;;;;;;5.41;56.73;97817.41;4968978;28;20206;-64
2023/01/18 01:26:09;;;;;;;12.00;4.00;;;;;;;5.37;57.27;97831.09;4967227;28;20213;-65
2023/01/18 01:28:39;;;;;;;6.87;3.17;;;;;;;5.38;57.30;97832.72;4967154;28;20726;-63
2023/01/18 01:31:11;;;;;;;11.23;3.80;;;;;;;5.39;57.23;97840.44;4974279;28;20210;-63
2023/01/18 01:33:40;;;;;;;7.50;3.40;;;;;;;5.38;57.17;97838.78;4967525;28;20544;-64
2023/01/18 01:36:12;;;;;;;7.33;3.50;;;;;;;5.37;56.90;97850.28;4968516;28;20254;-63
2023/01/18 01:38:41;;;;;;;7.10;3.37;;;;;;;5.34;56.69;97850.66;4968432;28;20297;-64
2023/01/18 01:41:13;;;;;;;8.40;3.53;;;;;;;5.37;56.57;97858.19;4966144;28;20208;-65
2023/01/18 01:43:44;;;;;;;6.13;3.10;;;;;;;5.38;56.45;97859.81;4970903;28;20224;-62
2023/01/18 01:46:21;;;;;;;7.47;3.40;;;;;;;5.36;56.59;97861.00;4966706;28;20738;-65
2023/01/18 01:48:50;;;;;;;6.53;3.07;;;;;;;5.37;56.48;97859.97;4969762;28;20214;-64
2023/01/18 01:51:20;;;;;;;9.27;3.23;;;;;;;5.32;56.36;97864.97;4969488;28;20266;-64
2023/01/18 01:53:50;;;;;;;7.00;3.07;;;;;;;5.27;56.60;97861.09;4969097;28;20218;-63
2023/01/18 01:56:18;;;;;;;7.60;3.43;;;;;;;5.29;56.75;97868.75;4966245;28;20231;-63
2023/01/18 01:58:50;;;;;;;6.60;3.47;;;;;;;5.30;56.86;97867.78;4965176;28;20234;-62
2023/01/18 02:01:18;;;;;;;6.30;3.13;;;;;;;5.30;57.08;97878.28;4970714;28;20214;-62
2023/01/18 02:03:46;;;;;;;6.50;3.10;;;;;;;5.27;56.81;97879.47;4967116;28;20245;-63
2023/01/18 02:06:30;;;;;;;9.33;3.63;;;;;;;5.28;56.93;97882.88;4963747;28;20886;-63
2023/01/18 02:09:00;;;;;;;6.93;3.00;;;;;;;5.31;56.98;97900.94;4967695;28;20272;-64
2023/01/18 02:11:29;;;;;;;4.60;2.73;;;;;;;5.27;57.17;97902.31;4967955;28;20809;-63
2023/01/18 02:14:00;;;;;;;6.93;2.90;;;;;;;5.28;57.09;97896.03;4972117;28;20226;-63
2023/01/18 02:16:38;;;;;;;7.07;3.07;;;;;;;5.28;57.08;97903.91;4965361;28;20325;-63
2023/01/18 02:19:27;;;;;;;8.80;2.90;;;;;;;5.28;57.14;97896.03;4969220;28;20684;-62
2023/01/18 02:21:58;;;;;;;6.33;2.70;;;;;;;5.29;56.96;97913.41;4966827;28;20528;-62
2023/01/18 02:25:06;;;;;;;6.13;2.77;;;;;;;5.27;57.26;97912.81;4967923;28;20293;-63
2023/01/18 02:27:43;;;;;;;4.83;2.70;;;;;;;5.33;57.31;97919.16;4958713;28;20746;-62
2023/01/18 02:30:25;;;;;;;7.60;3.20;;;;;;;5.31;57.11;97921.94;4970651;28;20335;-63
2023/01/18 02:33:04;;;;;;;6.33;2.73;;;;;;;5.34;56.89;97919.00;4966227;28;20301;-65
2023/01/18 02:35:47;;;;;;;6.17;2.77;;;;;;;5.30;57.08;97925.56;4967892;28;20297;-63
2023/01/18 02:38:19;;;;;;;5.37;2.77;;;;;;;5.29;57.20;97929.19;4967219;28;20221;-64
2023/01/18 02:41:02;;;;;;;5.80;3.00;;;;;;;5.29;57.47;97926.56;4967135;28;20309;-65
2023/01/18 02:46:37;;;;;;;6.93;3.07;;;;;;;5.27;57.27;97925.94;4966069;28;20214;-65
2023/01/18 02:49:08;;;;;;;7.83;2.83;;;;;;;5.25;57.42;97935.81;4965644;28;20249;-63
2023/01/18 02:51:36;;;;;;;5.43;2.73;;;;;;;5.22;57.38;97936.16;4968298;28;20280;-63
2023/01/18 02:54:08;;;;;;;5.90;2.90;;;;;;;5.24;57.45;97936.78;4967749;28;20306;-64
2023/01/18 02:56:40;;;;;;;5.97;2.67;;;;;;;5.23;57.45;97940.41;4964983;28;20488;-63
2023/01/18 02:59:14;;;;;;;5.90;2.90;;;;;;;5.23;57.55;97937.78;4973932;28;20247;-65
2023/01/18 03:01:48;;;;;;;6.97;3.10;;;;;;;5.23;57.41;97941.22;4965271;28;20213;-63
2023/01/18 03:04:20;;;;;;;8.43;3.20;;;;;;;5.21;57.61;97942.38;4964642;28;20240;-65
2023/01/18 03:06:56;;;;;;;9.00;3.63;;;;;;;5.26;57.32;97950.56;4964736;28;21020;-63
2023/01/18 03:09:25;;;;;;;6.73;2.90;;;;;;;5.26;57.36;97946.16;4970740;28;20212;-63
2023/01/18 03:12:00;;;;;;;8.63;3.70;;;;;;;5.26;57.32;97953.22;4968128;28;20237;-63
2023/01/18 03:14:40;;;;;;;9.97;3.23;;;;;;;5.28;57.40;97951.19;4968194;28;20216;-64
2023/01/18 03:17:18;;;;;;;8.97;3.30;;;;;;;5.27;57.50;97953.03;4967877;28;20241;-65
2023/01/18 03:20:03;;;;;;;5.47;3.00;;;;;;;5.28;57.54;97959.06;4969901;28;20220;-62
2023/01/18 03:25:24;;;;;;;6.40;2.80;;;;;;;5.29;57.53;97961.53;4966501;28;20663;-63
2023/01/18 03:33:43;;;;;;;5.67;3.27;;;;;;;5.35;57.24;97969.72;4966696;28;20246;-70
2023/01/18 03:36:22;;;;;;;7.03;2.97;;;;;;;5.35;57.48;97970.53;4968698;28;20266;-70
2023/01/18 03:38:55;;;;;;;4.37;2.40;;;;;;;5.38;57.37;97970.19;4968263;28;20242;-67
2023/01/18 03:41:28;;;;;;;6.57;2.70;;;;;;;5.42;57.35;97982.00;4966962;28;22092;-67
2023/01/18 03:44:02;;;;;;;6.63;2.73;;;;;;;5.42;57.50;97982.00;4965881;28;20221;-70
2023/01/18 03:46:31;;;;;;;5.83;2.77;;;;;;;5.42;57.49;97982.00;4965600;28;20313;-69
2023/01/18 03:49:01;;;;;;;6.83;2.70;;;;;;;5.44;57.62;97981.81;4968336;28;20215;-69
2023/01/18 03:51:46;;;;;;;5.13;2.40;;;;;;;5.43;57.43;97988.88;4967686;28;20226;-70
2023/01/18 03:54:20;;;;;;;4.93;2.50;;;;;;;5.45;57.12;97997.41;4969272;28;20270;-68
2023/01/18 03:56:52;;;;;;;4.73;2.57;;;;;;;5.48;57.06;97990.97;4964242;28;20248;-70
2023/01/18 03:59:20;;;;;;;5.20;2.53;;;;;;;5.49;57.01;98003.94;4962805;28;20236;-70
2023/01/18 04:01:48;;;;;;;7.43;2.87;;;;;;;5.48;56.96;98007.56;4965701;28;20249;-68
2023/01/18 04:04:18;;;;;;;8.00;2.53;;;;;;;5.45;56.90;98007.94;4967320;28;20214;-70
2023/01/18 04:06:45;;;;;;;7.47;3.13;;;;;;;5.48;56.80;98020.69;4962544;28;20217;-68
2023/01/18 04:09:13;;;;;;;8.00;3.00;;;;;;;5.50;56.80;98016.09;4965626;28;20215;-70
2023/01/18 04:11:41;;;;;;;4.97;2.50;;;;;;;5.52;57.00;98024.63;4966464;28;20225;-67
2023/01/18 04:14:08;;;;;;;7.50;2.57;;;;;;;5.51;56.60;98022.97;4966878;28;20736;-69
2023/01/18 04:16:36;;;;;;;6.20;2.60;;;;;;;5.50;56.54;98031.84;4964947;28;20350;-69
2023/01/18 04:19:06;;;;;;;5.70;2.50;;;;;;;5.53;56.74;98033.31;4969269;28;20304;-67
2023/01/18 04:21:35;;;;;;;6.00;2.43;;;;;;;5.53;56.69;98031.53;4966525;28;20202;-67
2023/01/18 04:24:03;;;;;;;8.40;3.13;;;;;;;5.60;56.53;98037.72;4967758;28;20206;-67
2023/01/18 04:26:32;;;;;;;4.47;2.20;;;;;;;5.59;56.27;98043.94;4964814;28;20207;-67
2023/01/18 04:29:00;;;;;;;6.97;2.50;;;;;;;5.61;56.41;98049.03;4968462;28;20568;-68
2023/01/18 04:31:28;;;;;;;6.57;2.57;;;;;;;5.60;56.46;98048.22;4970436;28;20212;-68
2023/01/18 04:33:56;;;;;;;5.87;2.90;;;;;;;5.59;56.70;98051.84;4968282;28;20219;-68
2023/01/18 04:36:24;;;;;;;6.07;2.77;;;;;;;5.60;56.58;98055.28;4968883;28;20210;-68
2023/01/18 04:38:56;;;;;;;5.77;2.67;;;;;;;5.60;56.97;98065.81;4971040;28;20225;-68
2023/01/18 04:41:24;;;;;;;8.60;3.17;;;;;;;5.59;56.86;98064.97;4968403;28;20222;-68
2023/01/18 04:43:51;;;;;;;7.17;2.97;;;;;;;5.60;56.67;98071.06;4967835;28;20215;-68
2023/01/18 04:46:19;;;;;;;8.00;3.27;;;;;;;5.59;57.02;98072.03;4965255;28;20235;-70
2023/01/18 04:48:49;;;;;;;6.27;2.70;;;;;;;5.61;57.75;98065.63;4965444;28;20234;-72
2023/01/18 04:51:18;;;;;;;6.57;2.60;;;;;;;5.64;57.21;98070.53;4968498;28;21214;-67
2023/01/18 04:53:46;;;;;;;6.17;2.80;;;;;;;5.68;57.05;98071.00;4971739;28;20220;-68
2023/01/18 04:56:16;;;;;;;4.77;2.53;;;;;;;5.66;56.94;98079.06;4975673;28;20233;-68
2023/01/18 04:58:45;;;;;;;8.47;2.60;;;;;;;5.65;56.78;98080.03;4971100;28;20258;-68
2023/01/18 05:01:13;;;;;;;6.33;2.50;;;;;;;5.65;56.88;98085.31;4972521;28;20206;-68
2023/01/18 05:03:41;;;;;;;6.10;2.70;;;;;;;5.67;56.84;98095.66;4972248;28;20270;-68
2023/01/18 05:06:11;;;;;;;6.67;2.80;;;;;;;5.62;56.76;98088.31;4972538;28;20222;-68
2023/01/18 05:08:39;;;;;;;7.63;3.10;;;;;;;5.61;56.88;98097.19;4972690;28;20238;-67
2023/01/18 05:11:11;;;;;;;5.80;3.03;;;;;;;5.64;57.17;98091.56;4972910;28;20211;-68
2023/01/18 05:13:41;;;;;;;6.73;2.87;;;;;;;5.62;57.31;98092.75;4973434;28;20643;-68
2023/01/18 05:16:13;;;;;;;6.80;2.70;;;;;;;5.62;57.09;98098.00;4974071;28;20763;-68
2023/01/18 05:18:41;;;;;;;7.33;2.50;;;;;;;5.55;57.40;98103.09;4975244;28;20261;-68
2023/01/18 05:21:09;;;;;;;8.47;2.90;;;;;;;5.54;57.19;98111.19;4972982;28;20567;-68
2023/01/18 05:23:38;;;;;;;7.37;2.87;;;;;;;5.57;57.18;98122.16;4975697;28;20694;-68
2023/01/18 05:26:13;;;;;;;6.03;2.57;;;;;;;5.54;57.67;98116.44;4972965;28;20592;-68
2023/01/18 05:28:43;;;;;;;5.83;2.63;;;;;;;5.57;57.75;98123.97;4970404;28;20238;-68
2023/01/18 05:31:11;;;;;;;7.77;3.00;;;;;;;5.56;57.42;98125.78;4971627;28;20762;-68
2023/01/18 05:33:39;;;;;;;5.57;2.53;;;;;;;5.59;57.42;98133.34;4971364;28;20257;-68
2023/01/18 05:36:08;;;;;;;7.10;2.33;;;;;;;5.56;57.66;98136.28;4970903;28;20214;-68
2023/01/18 05:38:36;;;;;;;5.83;2.57;;;;;;;5.56;57.63;98141.56;4972475;28;20316;-68
2023/01/18 05:41:03;;;;;;;4.60;2.30;;;;;;;5.49;57.73;98151.13;4971656;28;20225;-68
2023/01/18 05:43:31;;;;;;;7.13;3.30;;;;;;;5.48;57.99;98149.47;4969488;28;20218;-68
2023/01/18 05:46:03;;;;;;;5.73;2.53;;;;;;;5.49;57.94;98156.38;4971770;28;20214;-68
2023/01/18 05:48:31;;;;;;;4.77;2.10;;;;;;;5.51;57.75;98154.41;4964997;28;20246;-68
2023/01/18 05:50:59;;;;;;;7.80;2.90;;;;;;;5.47;57.83;98158.34;4973829;28;20337;-67
2023/01/18 05:53:26;;;;;;;9.57;3.53;;;;;;;5.49;57.74;98163.44;4967899;28;20218;-68
2023/01/18 05:55:56;;;;;;;5.73;2.63;;;;;;;5.47;57.86;98166.25;4969032;28;20218;-67
2023/01/18 05:58:24;;;;;;;6.70;2.50;;;;;;;5.48;57.61;98164.44;4968536;28;20227;-68
2023/01/18 06:00:52;;;;;;;6.80;2.70;;;;;;;5.44;58.20;98173.66;4974769;28;20269;-68
2023/01/18 06:03:22;;;;;;;8.67;2.60;;;;;;;5.37;58.36;98177.94;4975198;28;20238;-68
2023/01/18 06:05:50;;;;;;;9.20;2.53;;;;;;;5.36;58.33;98179.78;4974682;28;20550;-68
2023/01/18 06:08:19;;;;;;;5.13;2.60;;;;;;;5.39;58.35;98181.22;4970884;28;20237;-68
2023/01/18 06:10:52;;;;;;;4.33;2.30;;;;;;;5.36;58.52;98197.34;4973971;28;20214;-68
2023/01/18 06:13:21;;;;;;;7.90;2.60;;;;;;;5.35;58.69;98207.03;4971748;28;20293;-67
2023/01/18 06:15:49;;;;;;;4.43;2.00;;;;;;;5.34;58.62;98207.22;4975754;28;20217;-69
2023/01/18 06:18:17;;;;;;;5.47;2.20;;;;;;;5.35;58.88;98217.56;4969646;28;20947;-67
2023/01/18 06:20:46;;;;;;;7.17;2.57;;;;;;;5.32;58.79;98212.63;4972162;28;20221;-67
2023/01/18 06:23:14;;;;;;;4.97;2.47;;;;;;;5.31;58.81;98221.50;4971805;28;20229;-68
2023/01/18 06:25:42;;;;;;;7.20;2.00;;;;;;;5.28;58.82;98220.00;4972658;28;20346;-68
2023/01/18 06:28:09;;;;;;;5.43;2.53;;;;;;;5.30;58.79;98219.84;4972827;28;20205;-68
2023/01/18 06:30:37;;;;;;;4.60;2.23;;;;;;;5.29;59.08;98229.53;4973291;28;20221;-68
2023/01/18 06:33:06;;;;;;;9.50;2.87;;;;;;;5.28;58.87;98232.34;4970379;28;20309;-68
2023/01/18 06:35:35;;;;;;;5.03;2.33;;;;;;;5.29;58.92;98233.97;4974155;28;20202;-68
2023/01/18 06:38:05;;;;;;;7.07;2.93;;;;;;;5.29;58.94;98229.53;4973176;28;20246;-68
2023/01/18 06:40:33;;;;;;;8.67;2.87;;;;;;;5.32;59.13;98238.09;4971425;28;20287;-68
2023/01/18 06:43:00;;;;;;;9.50;2.30;;;;;;;5.33;58.77;98229.22;4971128;28;20857;-68
2023/01/18 06:45:29;;;;;;;7.17;2.87;;;;;;;5.32;58.85;98244.16;4972939;28;20604;-68
2023/01/18 06:47:57;;;;;;;5.27;2.13;;;;;;;5.30;58.91;98252.19;4975736;28;20261;-68
2023/01/18 06:50:24;;;;;;;5.33;2.33;;;;;;;5.34;59.06;98257.97;4975073;28;20218;-68
2023/01/18 06:52:54;;;;;;;5.47;2.47;;;;;;;5.29;59.03;98262.88;4974247;28;20210;-67
2023/01/18 06:55:23;;;;;;;6.47;2.20;;;;;;;5.29;59.29;98263.69;4971793;28;20213;-67
2023/01/18 06:57:51;;;;;;;4.23;2.00;;;;;;;5.32;58.91;98270.44;4968364;28;20230;-67
2023/01/18 07:00:20;;;;;;;5.23;2.70;;;;;;;5.36;58.65;98277.00;4976414;28;20214;-68
2023/01/18 07:02:47;;;;;;;7.23;2.43;;;;;;;5.35;58.82;98279.81;4973969;28;20261;-69
2023/01/18 07:05:15;;;;;;;6.40;1.90;;;;;;;5.35;58.57;98285.06;4969973;28;20224;-68
2023/01/18 07:07:44;;;;;;;7.50;1.73;;;;;;;5.33;58.27;98289.66;4970129;28;20242;-68
2023/01/18 07:10:12;;;;;;;6.50;2.87;;;;;;;5.35;57.62;98291.13;4969387;28;20217;-67
2023/01/18 07:12:47;;;;;;;6.83;2.37;;;;;;;5.35;57.73;98296.38;4967716;28;20822;-68
2023/01/18 07:15:16;;;;;;;5.53;1.83;;;;;;;5.31;57.59;98300.31;4969213;28;20198;-68
2023/01/18 07:17:50;;;;;;;7.90;2.60;;;;;;;5.34;57.50;98304.44;4971989;28;20203;-69
2023/01/18 07:20:18;;;;;;;7.20;2.40;;;;;;;5.33;57.34;98311.50;4970639;28;20606;-69
2023/01/18 07:22:51;;;;;;;6.03;2.20;;;;;;;5.33;57.15;98308.88;4973234;28;20223;-68
2023/01/18 07:25:19;;;;;;;7.10;2.13;;;;;;;5.30;56.87;98320.53;4971543;28;20803;-68
2023/01/18 07:27:49;;;;;;;10.27;2.43;;;;;;;5.30;56.71;98319.69;4966957;28;20710;-69
2023/01/18 07:30:17;;;;;;;6.10;1.87;;;;;;;5.30;56.61;98320.53;4971536;28;20218;-69
2023/01/18 07:32:48;;;;;;;5.33;2.23;;;;;;;5.31;56.74;98334.50;4967505;28;20689;-69
2023/01/18 07:35:17;;;;;;;7.13;2.20;;;;;;;5.30;56.61;98336.28;4969292;28;20213;-69
2023/01/18 07:37:48;;;;;;;6.30;2.70;;;;;;;5.35;56.54;98337.63;4971319;28;20300;-68
2023/01/18 07:40:16;;;;;;;7.37;2.27;;;;;;;5.34;56.36;98341.22;4970724;28;20222;-68
2023/01/18 07:42:44;;;;;;;5.47;2.50;;;;;;;5.33;55.97;98344.84;4972844;28;20257;-69
2023/01/18 07:45:14;;;;;;;5.90;2.30;;;;;;;5.33;55.41;98356.16;4969640;28;20246;-69
2023/01/18 07:47:42;;;;;;;6.00;2.60;;;;;;;5.33;55.19;98358.78;4971150;28;20214;-69
2023/01/18 07:50:12;;;;;;;3.97;1.77;;;;;;;5.37;54.92;98364.53;4971851;28;20730;-69
2023/01/18 07:52:40;;;;;;;6.13;2.23;;;;;;;5.38;54.70;98369.63;4972406;28;20202;-69
2023/01/18 07:55:09;;;;;;;5.40;2.10;;;;;;;5.42;54.65;98370.94;4970232;28;20269;-69
2023/01/18 07:57:36;;;;;;;4.23;1.93;;;;;;;5.44;54.52;98379.50;4969225;28;20214;-69
2023/01/18 08:00:06;;;;;;;5.20;1.93;;;;;;;5.48;54.41;98378.16;4973011;28;20328;-68
2023/01/18 08:02:35;;;;;;;5.20;2.33;;;;;;;5.48;54.26;98386.03;4972576;28;20310;-68
2023/01/18 08:05:03;;;;;;;7.33;1.80;;;;;;;5.52;53.75;98386.53;4975904;28;20253;-68
2023/01/18 08:07:32;;;;;;;6.43;2.03;;;;;;;5.53;53.99;98399.53;4970407;28;20344;-68
2023/01/18 08:09:59;;;;;;;5.67;2.10;;;;;;;5.50;53.81;98402.47;4971373;28;20218;-68
2023/01/18 08:12:27;;;;;;;5.80;2.27;;;;;;;5.52;53.83;98397.88;4970590;28;20241;-68
2023/01/18 08:14:55;;;;;;;6.00;2.30;;;;;;;5.55;53.88;98408.03;4972303;28;20727;-68
2023/01/18 08:17:23;;;;;;;4.57;2.17;;;;;;;5.55;53.83;98407.22;4971142;28;20210;-68
2023/01/18 08:19:52;;;;;;;5.63;2.53;;;;;;;5.55;54.02;98413.28;4974534;28;20357;-69
2023/01/18 08:22:20;;;;;;;9.17;3.27;;;;;;;5.55;54.11;98413.28;4977403;28;20285;-69
2023/01/18 08:24:48;;;;;;;11.17;3.30;;;;;;;5.51;54.05;98419.06;4974455;28;20249;-68
2023/01/18 08:27:16;;;;;;;8.87;3.10;;;;;;;5.50;54.28;98415.63;4977506;28;20222;-69
2023/01/18 08:29:44;;;;;;;7.67;3.10;;;;;;;5.51;54.28;98427.78;4977894;28;20330;-69
2023/01/18 08:32:13;;;;;;;9.37;3.33;;;;;;;5.47;54.14;98431.72;4971863;28;20215;-69
2023/01/18 08:34:40;;;;;;;8.17;2.70;;;;;;;5.53;53.84;98453.91;4969974;28;20219;-68
2023/01/18 08:37:10;;;;;;;7.00;2.83;;;;;;;5.56;53.92;98453.56;4971916;28;20212;-68
2023/01/18 08:39:38;;;;;;;6.70;3.27;;;;;;;5.53;54.22;98453.91;4974346;28;20258;-69
2023/01/18 08:42:06;;;;;;;11.03;2.63;;;;;;;5.59;54.09;98458.50;4971590;28;20266;-67
2023/01/18 08:44:34;;;;;;;8.43;3.10;;;;;;;5.57;54.20;98463.91;4971981;28;20787;-67
2023/01/18 08:47:02;;;;;;;6.50;3.10;;;;;;;5.61;53.77;98467.03;4971117;28;20221;-70
2023/01/18 08:49:31;;;;;;;6.73;2.80;;;;;;;5.63;53.58;98467.66;4969068;28;20488;-69
2023/01/18 08:51:59;;;;;;;7.03;3.00;;;;;;;5.67;53.90;98467.19;4976948;28;20732;-69
2023/01/18 08:54:28;;;;;;;8.13;3.60;;;;;;;5.71;53.51;98478.22;4975311;28;20212;-70
2023/01/18 08:56:56;;;;;;;10.57;3.70;;;;;;;5.74;53.76;98474.41;4972392;28;20218;-69
2023/01/18 08:59:24;;;;;;;9.03;3.33;;;;;;;5.78;53.53;98486.25;4971651;28;20234;-70
2023/01/18 09:01:52;;;;;;;8.33;3.57;;;;;;;5.82;53.26;98479.66;4973221;28;20311;-70
2023/01/18 09:04:21;;;;;;;7.90;3.50;;;;;;;5.79;53.27;98485.28;4973274;28;20329;-70
2023/01/18 09:06:50;;;;;;;9.70;3.33;;;;;;;5.87;53.17;98486.09;4932309;28;1197135;-69
2023/01/18 09:09:18;;;;;;;8.27;4.00;;;;;;;5.92;52.68;98490.88;4971747;28;20237;-70
2023/01/18 09:11:50;;;;;;;7.40;3.50;;;;;;;5.86;52.70;98500.22;4973270;28;20211;-70
2023/01/18 09:14:18;;;;;;;11.40;3.93;;;;;;;5.91;52.55;98507.63;4974356;28;20297;-70
2023/01/18 09:16:46;;;;;;;9.40;3.60;;;;;;;5.98;52.43;98519.16;4970138;28;20230;-69
2023/01/18 09:19:14;;;;;;;7.03;3.53;;;;;;;6.06;52.25;98513.88;4971840;28;20226;-70
2023/01/18 09:21:44;;;;;;;7.80;2.90;;;;;;;6.17;51.80;98529.31;4979424;28;20317;-70
2023/01/18 09:24:12;;;;;;;7.23;3.20;;;;;;;6.30;51.59;98527.00;4978378;28;20235;-70
2023/01/18 09:26:40;;;;;;;6.60;3.10;;;;;;;6.41;51.26;98536.34;4976311;28;20567;-70
2023/01/18 09:29:13;;;;;;;7.53;3.37;;;;;;;6.51;51.01;98536.94;4980654;28;20211;-71
2023/01/18 09:31:40;;;;;;;7.07;3.47;;;;;;;6.60;50.82;98541.19;4978524;28;20298;-70
2023/01/18 09:34:09;;;;;;;10.53;3.90;;;;;;;6.62;50.48;98549.75;4976590;28;20208;-70
2023/01/18 09:36:46;;;;;;;6.17;3.27;;;;;;;6.64;50.73;98554.88;4977610;28;20214;-69
2023/01/18 09:39:14;;;;;;;11.93;4.00;;;;;;;6.70;50.06;98560.28;4976200;28;20240;-69
2023/01/18 09:41:43;;;;;;;7.07;3.50;;;;;;;6.78;50.06;98569.94;4976324;28;20278;-70
2023/01/18 09:44:20;;;;;;;7.03;3.13;;;;;;;6.90;49.65;98573.03;4975084;28;20218;-70
2023/01/18 09:46:51;;;;;;;6.77;3.53;;;;;;;6.93;49.62;98572.72;4975272;28;20303;-69
2023/01/18 09:49:26;;;;;;;5.20;2.50;;;;;;;7.02;49.40;98569.88;4974990;28;20227;-68
2023/01/18 09:52:07;;;;;;;7.30;2.87;;;;;;;7.06;49.13;98572.97;4978789;28;20221;-68
2023/01/18 09:54:44;;;;;;;7.70;3.03;;;;;;;7.24;49.16;98581.47;4980013;28;20213;-69
2023/01/18 09:57:23;;;;;;;9.83;3.13;;;;;;;7.54;48.40;98587.72;4976594;28;20373;-70
2023/01/18 09:59:55;;;;;;;8.30;2.77;;;;;;;7.81;47.60;98589.03;4977065;28;20241;-69
2023/01/18 10:02:29;;;;;;;8.73;3.50;;;;;;;8.03;47.18;98584.72;4980613;28;20199;-69
2023/01/18 10:05:04;;;;;;;6.33;2.97;;;;;;;8.19;47.13;98592.50;4973247;28;20210;-68
2023/01/18 10:07:35;;;;;;;5.80;2.90;;;;;;;8.29;46.74;98593.91;4975664;28;20301;-69
2023/01/18 10:10:04;;;;;;;10.50;3.33;;;;;;;8.30;46.93;98595.53;4969976;28;20203;-68
2023/01/18 10:12:37;;;;;;;8.17;3.13;;;;;;;8.29;47.23;98604.47;4973735;28;20216;-69
2023/01/18 10:15:16;;;;;;;6.03;2.60;;;;;;;8.34;46.50;98611.91;4973623;28;20295;-70
2023/01/18 10:17:45;;;;;;;4.10;2.43;;;;;;;8.35;45.80;98608.25;4970514;28;20222;-70
2023/01/18 10:20:15;;;;;;;7.27;1.97;;;;;;;8.36;45.69;98603.78;4970599;28;20727;-68
2023/01/18 10:22:48;;;;;;;7.77;2.73;;;;;;;8.39;44.92;98614.81;4969712;28;20246;-68
2023/01/18 10:25:23;;;;;;;6.87;2.87;;;;;;;8.32;45.34;98608.59;4965959;28;20211;-67
2023/01/18 10:28:06;;;;;;;7.20;3.10;;;;;;;8.40;45.84;98616.47;4970655;28;20627;-67
2023/01/18 10:31:00;;;;;;;13.13;3.60;;;;;;;8.48;46.10;98613.75;4974353;28;20211;-68
2023/01/18 10:33:31;;;;;;;8.37;3.23;;;;;;;8.46;46.09;98614.91;4970267;28;20199;-68
2023/01/18 10:36:06;;;;;;;5.80;3.30;;;;;;;8.38;45.97;98618.44;4970650;28;20217;-68
2023/01/18 10:38:47;;;;;;;7.30;3.30;;;;;;;8.30;45.95;98626.41;4438861;28;10001380;-69
2023/01/18 10:41:20;;;;;;;7.97;3.40;;;;;;;8.24;46.24;98629.78;4986020;28;20951;-69
2023/01/18 10:43:48;;;;;;;8.30;3.73;;;;;;;8.33;46.01;98627.91;4991892;28;20269;-70
2023/01/18 10:46:20;;;;;;;11.33;3.77;;;;;;;8.43;45.87;98629.31;4987732;28;20216;-69
2023/01/18 10:48:50;;;;;;;10.30;3.27;;;;;;;8.54;45.10;98639.44;4986389;28;20229;-69
2023/01/18 10:51:30;;;;;;;8.00;3.17;;;;;;;8.53;44.74;98643.06;4988861;28;20202;-73
2023/01/18 10:53:58;;;;;;;6.17;3.43;;;;;;;8.56;44.96;98648.00;4988584;28;20202;-62
2023/01/18 10:56:28;;;;;;;7.37;3.37;;;;;;;8.65;45.09;98644.28;4990247;28;20214;-62
2023/01/18 10:58:57;;;;;;;8.43;3.97;;;;;;;8.70;44.30;98653.50;4990919;28;20263;-62
2023/01/18 11:01:29;;;;;;;9.00;3.57;;;;;;;8.89;44.12;98656.41;4991732;28;20232;-62
2023/01/18 11:04:04;;;;;;;9.80;3.10;;;;;;;9.10;43.41;98661.00;4991124;28;20206;-63
2023/01/18 11:06:45;;;;;;;7.67;3.07;;;;;;;9.24;42.63;98659.34;4992620;28;20212;-63
2023/01/18 11:09:40;;;;;;;8.73;3.30;;;;;;;9.39;42.35;98661.00;4987964;28;20221;-63
2023/01/18 11:12:35;;;;;;;6.13;3.10;;;;;;;9.33;42.23;98656.41;4990096;28;20220;-61
2023/01/18 11:15:27;;;;;;;8.13;3.03;;;;;;;9.27;42.22;98651.88;4992902;28;20224;-63
2023/01/18 11:18:07;;;;;;;6.93;3.30;;;;;;;9.14;42.07;98651.72;4987257;28;20209;-63
2023/01/18 11:20:43;;;;;;;8.67;3.70;;;;;;;8.97;42.75;98650.25;4991434;28;20610;-62
2023/01/18 11:23:19;;;;;;;6.47;3.37;;;;;;;8.96;43.25;98652.06;4998501;28;20310;-64
2023/01/18 11:25:54;;;;;;;11.33;3.80;;;;;;;8.98;42.95;98657.97;4994663;28;20213;-64
2023/01/18 11:28:25;;;;;;;7.67;3.90;;;;;;;8.94;43.09;98651.44;4993786;28;20309;-63
2023/01/18 11:30:56;;;;;;;8.03;3.93;;;;;;;9.00;43.50;98653.34;4997030;28;20928;-63
2023/01/18 11:33:28;;;;;;;9.63;4.87;;;;;;;9.17;43.72;98661.91;4992468;28;20621;-64
2023/01/18 11:35:59;;;;;;;13.57;4.23;;;;;;;9.35;43.48;98658.88;4990017;28;20308;-63
2023/01/18 11:38:30;;;;;;;12.50;4.40;;;;;;;9.52;42.99;98667.44;4989138;28;20210;-61
2023/01/18 11:41:07;;;;;;;7.50;4.07;;;;;;;9.77;42.80;98668.75;4986871;28;20257;-61
2023/01/18 11:43:38;;;;;;;9.57;4.37;;;;;;;9.88;41.91;98664.81;4989418;28;20269;-62
2023/01/18 11:46:26;;;;;;;9.17;4.50;;;;;;;10.02;41.93;98666.59;4986163;28;20221;-63
2023/01/18 11:48:59;;;;;;;11.47;3.90;;;;;;;10.03;41.82;98669.03;4989126;28;20221;-62
2023/01/18 11:51:33;;;;;;;12.03;4.97;;;;;;;10.02;41.47;98674.53;4988455;28;20231;-62
2023/01/18 11:54:09;;;;;;;8.83;4.47;;;;;;;9.94;41.96;98675.44;4988642;28;20222;-62
2023/01/18 11:56:42;;;;;;;10.13;5.20;;;;;;;9.79;42.08;98672.03;4987433;28;20665;-60
2023/01/18 11:59:14;;;;;;;10.07;5.03;;;;;;;9.63;42.43;98677.56;4990701;28;20315;-61
2023/01/18 12:02:10;;;;;;;12.33;5.53;;;;;;;9.43;42.16;98680.75;4994233;28;20328;-62
2023/01/18 12:04:52;;;;;;;13.33;6.07;;;;;;;9.24;42.96;98685.78;4990691;28;20228;-63
2023/01/18 12:07:31;;;;;;;12.03;5.20;;;;;;;9.16;42.99;98691.16;4992769;28;20272;-61
2023/01/18 12:10:01;;;;;;;16.10;5.50;;;;;;;9.10;43.61;98692.72;4987844;28;20212;-61
2023/01/18 12:12:43;;;;;;;14.00;5.30;;;;;;;9.07;43.80;98693.91;4984744;28;20209;-62
2023/01/18 12:15:28;;;;;;;10.30;5.30;;;;;;;9.09;43.74;98701.66;4990300;28;20258;-62
2023/01/18 12:18:17;;;;;;;14.97;6.20;;;;;;;9.06;44.18;98702.81;4985695;28;20672;-62
2023/01/18 12:20:58;;;;;;;14.20;5.70;;;;;;;8.96;43.51;98704.13;4985831;28;20226;-62
2023/01/18 12:23:52;;;;;;;13.63;6.07;;;;;;;8.92;43.73;98700.19;4987871;28;20215;-61
2023/01/18 12:26:34;;;;;;;15.47;6.03;;;;;;;8.88;43.94;98704.19;4987499;28;20261;-62
2023/01/18 12:29:27;;;;;;;16.90;6.50;;;;;;;8.79;44.21;98719.31;4987859;28;20282;-62
2023/01/18 12:32:08;;;;;;;11.97;5.80;;;;;;;8.77;44.10;98723.13;4989242;28;20202;-62
2023/01/18 12:34:41;;;;;;;12.50;5.60;;;;;;;8.67;43.87;98734.75;4985889;28;20211;-62